Thompson, Missouri
Current Conditions -  °F | °C
As of 6:54 AM on Sunday 23 Nov 2014 (Local Time) from KCOU Reporting Station
Heavy Rain Heavy Rain  
Wind Chill: 11°   Ceiling: 3000
Heat Index: 11°   Visibility: 3mi
Dew Point: 11°   Wind: 15mph
Humidity: 97%   Direction: 140°SE
Pressure: 29.63"   Gusts: NA
Location:  39.19°N, 91.98°W
Report Text: KCOU 231254Z 14013KT 3SM +RA BR FEW018 BKN030 OVC037 11/11 A2963 RMK AO2 SLP032 P0010 T01110106 $
Loading
Personal Weather Stations






























Interactive Weather Map New forecast layout! Learn more

10-Day Weather Forecast

Advertisements
Track Severe Weather on mobile